createdAt,value
2018-09-24T00:01:54.626Z,54.80
2018-09-24T00:04:21.083Z,54.70
2018-09-24T00:06:47.535Z,54.80
2018-09-24T00:09:14.341Z,55.30
2018-09-24T00:11:40.814Z,54.70
2018-09-24T00:14:07.412Z,54.70
2018-09-24T00:16:33.899Z,54.60
2018-09-24T00:19:00.347Z,54.60
2018-09-24T00:21:27.148Z,54.60
2018-09-24T00:23:53.594Z,54.60
2018-09-24T00:26:20.047Z,54.50
2018-09-24T00:28:46.542Z,54.60
2018-09-24T00:31:13.030Z,54.50
2018-09-24T00:33:39.470Z,54.50
2018-09-24T00:36:05.976Z,54.50
2018-09-24T00:38:32.475Z,54.50
2018-09-24T00:40:58.954Z,55.10
2018-09-24T00:43:25.444Z,54.50
2018-09-24T00:45:51.912Z,54.50
2018-09-24T00:48:18.357Z,54.50
2018-09-24T00:50:44.844Z,54.50
2018-09-24T00:53:11.328Z,54.40
2018-09-24T00:55:37.792Z,54.30
2018-09-24T00:58:04.263Z,54.30
2018-09-24T01:00:30.740Z,54.40
2018-09-24T01:02:57.219Z,54.20
2018-09-24T01:05:23.708Z,54.30
2018-09-24T01:07:50.470Z,54.30
2018-09-24T01:10:16.978Z,54.30
2018-09-24T01:12:43.455Z,54.30
2018-09-24T01:15:10.003Z,54.20
2018-09-24T01:17:36.703Z,54.20
2018-09-24T01:20:03.337Z,54.10
2018-09-24T01:22:29.921Z,54.10
2018-09-24T01:24:56.423Z,54.10
2018-09-24T01:27:22.925Z,54.10
2018-09-24T01:29:49.395Z,54.10
2018-09-24T01:32:15.869Z,54.00
2018-09-24T01:34:42.337Z,54.00
2018-09-24T01:37:08.821Z,54.10
2018-09-24T01:39:35.441Z,54.10
2018-09-24T01:42:01.933Z,54.00
2018-09-24T01:44:28.391Z,54.00
2018-09-24T01:46:54.861Z,54.00
2018-09-24T01:49:21.639Z,54.00
2018-09-24T01:51:48.207Z,54.00
2018-09-24T01:54:14.703Z,54.00
2018-09-24T01:56:41.176Z,54.00
2018-09-24T01:59:07.645Z,54.00
2018-09-24T02:01:34.105Z,54.00
2018-09-24T02:04:00.559Z,53.90
2018-09-24T02:06:27.028Z,54.00
2018-09-24T02:08:53.505Z,53.90
2018-09-24T02:11:19.989Z,53.90
2018-09-24T02:13:47.926Z,53.80
2018-09-24T02:16:14.531Z,53.50
2018-09-24T02:18:40.982Z,53.70
2018-09-24T02:21:07.453Z,53.80
2018-09-24T02:23:33.897Z,53.60
2018-09-24T02:26:00.391Z,53.70
2018-09-24T02:28:27.107Z,53.70
2018-09-24T02:30:53.593Z,53.70
2018-09-24T02:33:20.083Z,53.60
2018-09-24T02:35:47.335Z,53.70
2018-09-24T02:38:13.789Z,53.70
2018-09-24T02:40:40.275Z,53.60
2018-09-24T02:43:06.758Z,53.70
2018-09-24T02:45:33.218Z,53.50
2018-09-24T02:47:59.673Z,53.60
2018-09-24T02:50:26.238Z,53.60
2018-09-24T02:52:52.831Z,54.10
2018-09-24T02:55:19.290Z,53.50
2018-09-24T02:57:45.864Z,53.50
2018-09-24T03:00:15.781Z,53.50
2018-09-24T03:02:42.251Z,53.40
2018-09-24T03:05:08.785Z,53.40
2018-09-24T03:07:35.630Z,53.40
2018-09-24T03:10:02.099Z,53.40
2018-09-24T03:12:28.570Z,53.40
2018-09-24T03:14:55.036Z,53.30
2018-09-24T03:17:21.569Z,53.30
2018-09-24T03:19:48.658Z,53.40
2018-09-24T03:22:15.185Z,53.30
2018-09-24T03:24:41.643Z,53.30
2018-09-24T03:27:08.111Z,53.30
2018-09-24T03:29:34.538Z,53.30
2018-09-24T03:32:01.025Z,53.30
2018-09-24T03:34:27.480Z,53.30
2018-09-24T03:36:53.937Z,53.20
2018-09-24T03:39:20.461Z,53.20
2018-09-24T03:41:47.057Z,53.20
2018-09-24T03:44:13.500Z,53.80
2018-09-24T03:46:40.571Z,53.20
2018-09-24T03:49:07.416Z,53.20
2018-09-24T03:51:33.894Z,53.20
2018-09-24T03:54:00.362Z,53.20
2018-09-24T03:56:26.832Z,53.20
2018-09-24T03:58:53.403Z,53.00
2018-09-24T04:01:19.844Z,53.10
2018-09-24T04:03:46.294Z,53.10
2018-09-24T04:06:18.490Z,53.10
2018-09-24T04:08:50.644Z,53.10
2018-09-24T04:11:22.840Z,53.00
2018-09-24T04:13:55.116Z,53.00
2018-09-24T04:16:27.242Z,53.00
2018-09-24T04:18:59.380Z,52.70
2018-09-24T04:21:31.490Z,52.90
2018-09-24T04:24:03.552Z,52.80
2018-09-24T04:26:35.588Z,52.70
2018-09-24T04:29:07.700Z,52.80
2018-09-24T04:31:39.768Z,53.30
2018-09-24T04:34:11.792Z,52.80
2018-09-24T04:36:43.848Z,52.80
2018-09-24T04:39:16.295Z,52.70
2018-09-24T04:41:48.478Z,52.70
2018-09-24T04:44:20.681Z,52.70
2018-09-24T04:46:52.722Z,52.80
2018-09-24T04:49:26.164Z,52.70
2018-09-24T04:51:58.266Z,52.40
2018-09-24T04:54:30.434Z,52.70
2018-09-24T04:57:02.620Z,52.70
2018-09-24T05:02:13.462Z,52.70
2018-09-24T05:04:45.518Z,52.70
2018-09-24T05:07:17.632Z,52.80
2018-09-24T05:09:49.741Z,52.80
2018-09-24T05:12:21.803Z,53.00
2018-09-24T05:14:53.824Z,52.80
2018-09-24T05:17:25.914Z,52.90
2018-09-24T05:19:58.009Z,52.90
2018-09-24T05:22:30.193Z,52.80
2018-09-24T05:25:02.427Z,52.90
2018-09-24T05:27:37.597Z,53.00
2018-09-24T05:30:09.676Z,53.00
2018-09-24T05:32:41.735Z,53.00
2018-09-24T05:35:13.977Z,53.00
2018-09-24T05:37:46.074Z,53.00
2018-09-24T05:40:18.144Z,53.00
2018-09-24T05:42:50.173Z,53.00
2018-09-24T05:45:22.173Z,53.00
2018-09-24T05:47:54.537Z,52.90
2018-09-24T05:50:26.691Z,52.70
2018-09-24T05:52:58.861Z,52.60
2018-09-24T05:55:30.983Z,52.60
2018-09-24T05:58:03.078Z,52.60
2018-09-24T06:00:35.157Z,52.70
2018-09-24T06:03:07.311Z,52.60
2018-09-24T06:05:39.403Z,52.70
2018-09-24T06:08:11.473Z,52.70
2018-09-24T06:10:43.531Z,52.60
2018-09-24T06:13:15.621Z,52.70
2018-09-24T06:15:47.666Z,51.70
2018-09-24T06:18:19.745Z,49.70
2018-09-24T06:20:51.836Z,48.60
2018-09-24T06:23:23.936Z,47.10
2018-09-24T06:25:56.098Z,46.10
2018-09-24T06:28:28.296Z,45.80
2018-09-24T06:31:00.357Z,45.70
2018-09-24T06:33:32.417Z,46.00
2018-09-24T06:36:04.567Z,46.40
2018-09-24T06:38:36.739Z,46.40
2018-09-24T06:41:08.855Z,47.10
2018-09-24T06:43:40.909Z,47.50
2018-09-24T06:46:13.013Z,47.60
2018-09-24T06:48:45.173Z,47.60
2018-09-24T06:51:17.271Z,48.20
2018-09-24T06:53:49.494Z,48.10
2018-09-24T06:56:21.619Z,48.20
2018-09-24T06:58:53.733Z,48.40
2018-09-24T07:01:25.827Z,48.10
2018-09-24T07:03:57.918Z,48.30
2018-09-24T07:06:29.977Z,48.40
2018-09-24T07:09:02.042Z,48.80
2018-09-24T07:11:34.173Z,49.00
2018-09-24T07:14:06.265Z,48.80
2018-09-24T07:16:38.313Z,48.90
2018-09-24T07:19:11.098Z,49.10
2018-09-24T07:21:43.170Z,49.10
2018-09-24T07:24:16.221Z,49.10
2018-09-24T07:26:48.353Z,49.10
2018-09-24T07:29:20.477Z,49.30
2018-09-24T07:31:52.590Z,49.30
2018-09-24T07:34:24.642Z,49.30
2018-09-24T07:36:56.741Z,49.40
2018-09-24T07:39:28.881Z,49.40
2018-09-24T07:42:00.901Z,49.60
2018-09-24T07:44:33.035Z,49.30
2018-09-24T07:47:05.163Z,49.50
2018-09-24T07:49:37.318Z,49.60
2018-09-24T07:52:09.460Z,49.50
2018-09-24T07:54:41.528Z,49.40
2018-09-24T07:57:13.543Z,49.40
2018-09-24T07:59:45.906Z,49.70
2018-09-24T08:02:17.979Z,49.60
2018-09-24T08:04:50.048Z,49.50
2018-09-24T08:07:22.259Z,50.00
2018-09-24T08:09:54.324Z,49.60
2018-09-24T08:12:26.389Z,49.70
2018-09-24T08:14:58.614Z,49.70
2018-09-24T08:17:30.747Z,49.60
2018-09-24T08:20:02.842Z,49.60
2018-09-24T08:22:34.984Z,49.70
2018-09-24T08:25:07.095Z,49.70
2018-09-24T08:27:39.240Z,49.80
2018-09-24T08:30:11.324Z,49.90
2018-09-24T08:32:43.508Z,50.00
2018-09-24T08:35:15.640Z,50.00
2018-09-24T08:37:47.722Z,50.00
2018-09-24T08:40:19.866Z,50.00
2018-09-24T08:42:51.929Z,50.00
2018-09-24T08:45:24.156Z,49.90
2018-09-24T08:47:56.304Z,49.90
2018-09-24T08:50:28.367Z,50.00
2018-09-24T08:53:00.472Z,50.10
2018-09-24T08:55:32.558Z,50.10
2018-09-24T08:58:04.520Z,50.00
2018-09-24T09:00:36.598Z,49.80
2018-09-24T09:03:08.705Z,49.90
2018-09-24T09:05:40.860Z,49.70
2018-09-24T09:08:13.007Z,49.70
2018-09-24T09:10:45.185Z,49.80
2018-09-24T09:13:17.342Z,49.70
2018-09-24T09:15:49.398Z,49.70
2018-09-24T09:18:21.592Z,49.70
2018-09-24T09:20:53.664Z,49.70
2018-09-24T09:23:25.760Z,50.20
2018-09-24T09:25:57.844Z,49.50
2018-09-24T09:28:29.907Z,49.50
2018-09-24T09:31:01.911Z,49.50
2018-09-24T09:33:34.009Z,49.60
2018-09-24T09:36:06.090Z,49.60
2018-09-24T09:38:38.187Z,49.50
2018-09-24T09:41:10.247Z,49.60
2018-09-24T09:43:42.516Z,49.50
2018-09-24T09:46:14.738Z,49.50
2018-09-24T09:48:46.881Z,49.40
2018-09-24T09:51:18.936Z,49.30
2018-09-24T09:53:51.068Z,49.30
2018-09-24T09:56:23.076Z,49.40
2018-09-24T09:58:55.121Z,49.30
2018-09-24T10:01:27.372Z,49.30
2018-09-24T10:03:59.396Z,49.50
2018-09-24T10:06:31.479Z,49.50
2018-09-24T10:09:03.566Z,49.70
2018-09-24T10:11:35.681Z,49.90
2018-09-24T10:14:07.740Z,49.90
2018-09-24T10:16:39.803Z,49.70
2018-09-24T10:19:12.177Z,50.50
2018-09-24T10:21:44.326Z,49.90
2018-09-24T10:24:16.520Z,49.20
2018-09-24T10:26:48.561Z,49.30
2018-09-24T10:29:20.944Z,49.30
2018-09-24T10:31:53.109Z,48.90
2018-09-24T10:34:25.212Z,49.40
2018-09-24T10:36:57.244Z,49.60
2018-09-24T10:39:29.320Z,49.60
2018-09-24T10:42:01.302Z,49.40
2018-09-24T10:44:33.389Z,49.30
2018-09-24T10:47:05.445Z,48.50
2018-09-24T10:49:37.602Z,48.60
2018-09-24T10:52:09.713Z,48.80
2018-09-24T10:54:41.849Z,48.80
2018-09-24T10:57:13.974Z,48.60
2018-09-24T10:59:46.066Z,48.40
2018-09-24T11:02:18.199Z,48.40
2018-09-24T11:04:50.373Z,48.80
2018-09-24T11:07:22.431Z,48.50
2018-09-24T11:09:54.567Z,48.70
2018-09-24T11:12:26.641Z,48.90
2018-09-24T11:14:58.703Z,48.50
2018-09-24T11:17:30.981Z,48.40
2018-09-24T11:20:02.839Z,48.60
2018-09-24T11:22:34.874Z,48.50
2018-09-24T11:25:06.959Z,48.50
2018-09-24T11:27:39.148Z,48.50
2018-09-24T11:30:11.220Z,48.30
2018-09-24T11:32:43.246Z,48.40
2018-09-24T11:35:15.336Z,48.40
2018-09-24T11:37:47.436Z,48.40
2018-09-24T11:40:19.585Z,48.40
2018-09-24T11:42:51.761Z,48.40
2018-09-24T11:45:23.860Z,48.40
2018-09-24T11:47:55.950Z,48.40
2018-09-24T11:50:28.076Z,48.40
2018-09-24T11:53:00.187Z,48.40
2018-09-24T11:55:32.468Z,48.40
2018-09-24T11:58:04.743Z,48.40
2018-09-24T12:00:36.894Z,48.70
2018-09-24T12:03:09.066Z,48.80
2018-09-24T12:05:41.256Z,48.70
2018-09-24T12:08:13.386Z,48.30
2018-09-24T12:10:45.432Z,48.20
2018-09-24T12:13:17.570Z,47.50
2018-09-24T12:15:49.770Z,47.80
2018-09-24T12:18:21.916Z,47.90
2018-09-24T12:20:53.949Z,47.90
2018-09-24T12:23:26.094Z,47.60
2018-09-24T12:25:58.276Z,47.70
2018-09-24T12:28:30.450Z,47.60
2018-09-24T12:31:02.692Z,46.80
2018-09-24T12:33:34.751Z,46.60
2018-09-24T12:36:06.942Z,46.90
2018-09-24T12:38:39.061Z,46.90
2018-09-24T12:41:11.241Z,46.90
2018-09-24T12:43:43.322Z,47.20
2018-09-24T12:46:15.504Z,47.20
2018-09-24T12:48:47.591Z,47.20
2018-09-24T12:51:19.838Z,47.20
2018-09-24T12:53:51.965Z,47.30
2018-09-24T12:56:24.109Z,47.50
2018-09-24T12:58:56.186Z,47.40
2018-09-24T13:01:28.340Z,47.40
2018-09-24T13:04:00.405Z,47.50
2018-09-24T13:06:32.735Z,47.40
2018-09-24T13:09:04.910Z,47.70
2018-09-24T13:11:36.920Z,47.60
2018-09-24T13:14:09.109Z,47.60
2018-09-24T13:16:41.104Z,47.70
2018-09-24T13:19:13.929Z,47.70
2018-09-24T13:21:45.918Z,47.80
2018-09-24T13:24:18.064Z,47.80
2018-09-24T13:26:50.189Z,47.80
2018-09-24T13:29:22.319Z,47.90
2018-09-24T13:31:54.427Z,47.90
2018-09-24T13:34:26.601Z,47.90
2018-09-24T13:36:58.671Z,48.00
2018-09-24T13:39:31.150Z,48.00
2018-09-24T13:42:03.326Z,48.10
2018-09-24T13:44:35.474Z,48.30
2018-09-24T13:47:07.654Z,48.30
2018-09-24T13:49:41.166Z,48.00
2018-09-24T13:52:13.157Z,47.90
2018-09-24T13:54:45.217Z,48.30
2018-09-24T13:57:17.392Z,48.30
2018-09-24T13:59:49.861Z,48.30
2018-09-24T14:02:22.098Z,48.40
2018-09-24T14:04:54.159Z,48.40
2018-09-24T14:07:26.316Z,48.40
2018-09-24T14:09:58.351Z,48.50
2018-09-24T14:12:30.393Z,48.50
2018-09-24T14:15:02.440Z,48.60
2018-09-24T14:17:34.566Z,48.60
2018-09-24T14:20:06.664Z,48.60
2018-09-24T14:22:38.814Z,48.70
2018-09-24T14:25:10.894Z,48.70
2018-09-24T14:27:43.043Z,48.80
2018-09-24T14:30:15.183Z,48.80
2018-09-24T14:32:47.354Z,48.70
2018-09-24T14:35:19.529Z,48.70
2018-09-24T14:37:51.570Z,48.80
2018-09-24T14:40:23.694Z,48.70
2018-09-24T14:42:55.808Z,49.40
2018-09-24T14:45:27.895Z,48.80
2018-09-24T14:48:00.054Z,48.70
2018-09-24T14:50:32.094Z,48.80
2018-09-24T14:53:04.266Z,48.70
2018-09-24T14:55:36.341Z,48.70
2018-09-24T14:58:08.488Z,48.70
2018-09-24T15:00:40.636Z,48.70
2018-09-24T15:03:12.912Z,48.70
2018-09-24T15:05:45.041Z,48.80
2018-09-24T15:08:17.080Z,48.90
2018-09-24T15:10:49.156Z,48.80
2018-09-24T15:13:21.294Z,48.80
2018-09-24T15:15:53.390Z,48.90
2018-09-24T15:18:25.491Z,48.80
2018-09-24T15:21:00.707Z,48.80
2018-09-24T15:23:32.765Z,48.80
2018-09-24T15:26:04.850Z,48.80
2018-09-24T15:28:36.975Z,48.80
2018-09-24T15:31:09.011Z,48.90
2018-09-24T15:33:41.064Z,48.80
2018-09-24T15:36:13.091Z,48.80
2018-09-24T15:38:45.139Z,48.80
2018-09-24T15:41:17.164Z,48.90
2018-09-24T15:43:49.235Z,48.90
2018-09-24T15:46:21.356Z,49.00
2018-09-24T15:48:53.496Z,48.90
2018-09-24T15:51:25.729Z,48.90
2018-09-24T15:53:57.699Z,49.00
2018-09-24T15:56:29.753Z,49.00
2018-09-24T15:59:01.826Z,49.00
2018-09-24T16:01:34.011Z,49.10
2018-09-24T16:04:06.195Z,49.00
2018-09-24T16:06:38.221Z,49.10
2018-09-24T16:09:10.338Z,49.10
2018-09-24T16:11:42.437Z,49.00
2018-09-24T16:14:14.496Z,49.10
2018-09-24T16:16:46.654Z,49.10
2018-09-24T16:19:18.813Z,49.10
2018-09-24T16:21:50.903Z,49.10
2018-09-24T16:24:22.981Z,49.10
2018-09-24T16:26:55.135Z,49.10
2018-09-24T16:29:27.393Z,49.10
2018-09-24T16:31:59.543Z,49.10
2018-09-24T16:34:31.666Z,49.20
2018-09-24T16:37:03.778Z,49.10
2018-09-24T16:39:36.042Z,49.10
2018-09-24T16:42:08.165Z,49.10
2018-09-24T16:44:40.379Z,49.10
2018-09-24T16:47:12.435Z,49.20
2018-09-24T16:49:44.588Z,49.10
2018-09-24T16:52:16.686Z,49.00
2018-09-24T16:54:48.758Z,49.00
2018-09-24T16:57:20.774Z,49.20
2018-09-24T16:59:52.885Z,49.10
2018-09-24T17:02:24.903Z,49.00
2018-09-24T17:04:56.970Z,49.00
2018-09-24T17:07:29.142Z,49.20
2018-09-24T17:10:01.244Z,49.10
2018-09-24T17:12:33.362Z,49.00
2018-09-24T17:15:05.358Z,48.80
2018-09-24T17:17:37.450Z,48.50
2018-09-24T17:20:10.064Z,48.50
2018-09-24T17:22:42.265Z,48.40
2018-09-24T17:25:14.325Z,48.60
2018-09-24T17:27:46.451Z,48.60
2018-09-24T17:30:18.538Z,48.80
2018-09-24T17:32:50.948Z,49.20
2018-09-24T17:35:23.308Z,49.20
2018-09-24T17:37:55.419Z,50.10
2018-09-24T17:40:27.514Z,50.00
2018-09-24T17:42:59.701Z,50.20
2018-09-24T17:45:31.741Z,50.70
2018-09-24T17:48:03.915Z,52.00
2018-09-24T17:50:35.984Z,52.30
2018-09-24T17:53:08.119Z,53.40
2018-09-24T17:55:40.285Z,51.60
2018-09-24T17:58:12.498Z,51.90
2018-09-24T18:00:44.714Z,51.70
2018-09-24T18:03:16.844Z,51.20
2018-09-24T18:05:48.932Z,51.50
2018-09-24T18:08:21.043Z,50.90
2018-09-24T18:10:53.186Z,51.00
2018-09-24T18:13:25.212Z,51.00
2018-09-24T18:15:57.338Z,51.20
2018-09-24T18:18:29.446Z,50.90
2018-09-24T18:21:01.587Z,50.80
2018-09-24T18:23:33.589Z,50.80
2018-09-24T18:26:05.667Z,50.80
2018-09-24T18:28:37.760Z,50.80
2018-09-24T18:31:09.869Z,50.80
2018-09-24T18:33:41.914Z,50.40
2018-09-24T18:36:14.053Z,50.80
2018-09-24T18:38:46.186Z,50.90
2018-09-24T18:41:18.303Z,50.80
2018-09-24T18:43:50.451Z,50.80
2018-09-24T18:46:22.556Z,50.80
2018-09-24T18:48:54.680Z,50.70
2018-09-24T18:51:26.729Z,50.80
2018-09-24T18:53:59.043Z,50.70
2018-09-24T18:56:31.110Z,50.70
2018-09-24T18:59:03.192Z,50.60
2018-09-24T19:01:35.274Z,50.60
2018-09-24T19:04:07.410Z,50.50
2018-09-24T19:06:39.562Z,50.50
2018-09-24T19:09:11.649Z,50.40
2018-09-24T19:11:43.903Z,50.40
2018-09-24T19:14:15.943Z,50.10
2018-09-24T19:16:48.096Z,50.40
2018-09-24T19:19:20.258Z,50.30
2018-09-24T19:21:59.427Z,50.40
2018-09-24T19:24:31.522Z,50.40
2018-09-24T19:27:03.683Z,50.30
2018-09-24T19:29:36.253Z,50.40
2018-09-24T19:32:08.422Z,50.30
2018-09-24T19:34:40.491Z,50.40
2018-09-24T19:37:12.737Z,50.40
2018-09-24T19:39:45.120Z,50.40
2018-09-24T19:42:17.260Z,50.40
2018-09-24T19:44:49.348Z,50.40
2018-09-24T19:47:21.526Z,50.30
2018-09-24T19:49:53.785Z,50.30
2018-09-24T19:52:26.134Z,50.30
2018-09-24T19:54:58.309Z,50.40
2018-09-24T19:57:30.485Z,50.30
2018-09-24T20:00:02.592Z,50.40
2018-09-24T20:02:34.694Z,50.30
2018-09-24T20:05:06.873Z,50.40
2018-09-24T20:07:39.027Z,50.40
2018-09-24T20:10:11.176Z,50.40
2018-09-24T20:12:43.298Z,50.40
2018-09-24T20:15:15.414Z,50.40
2018-09-24T20:17:53.653Z,50.40
2018-09-24T20:20:31.946Z,50.40
2018-09-24T20:23:10.098Z,50.40
2018-09-24T20:25:48.277Z,50.40
2018-09-24T20:28:26.508Z,50.40
2018-09-24T20:31:05.012Z,50.50
2018-09-24T20:33:37.378Z,50.20
2018-09-24T20:36:09.535Z,50.40
2018-09-24T20:38:41.639Z,50.30
2018-09-24T20:41:13.730Z,50.40
2018-09-24T20:43:45.841Z,50.30
2018-09-24T20:46:17.939Z,50.30
2018-09-24T20:48:49.913Z,50.30
2018-09-24T20:51:22.069Z,50.30
2018-09-24T20:53:54.220Z,50.30
2018-09-24T20:56:26.317Z,50.40
2018-09-24T20:58:58.455Z,50.40
2018-09-24T21:01:30.551Z,50.30
2018-09-24T21:04:02.713Z,50.30
2018-09-24T21:06:34.903Z,50.30
2018-09-24T21:09:07.099Z,50.50
2018-09-24T21:11:39.083Z,50.30
2018-09-24T21:14:11.174Z,50.30
2018-09-24T21:16:43.261Z,50.30
2018-09-24T21:19:15.655Z,50.30
2018-09-24T21:21:47.708Z,50.30
2018-09-24T21:24:19.896Z,50.30
2018-09-24T21:26:51.993Z,50.30
2018-09-24T21:29:24.898Z,50.30
2018-09-24T21:31:57.010Z,50.30
2018-09-24T21:34:29.160Z,50.30
2018-09-24T21:37:01.317Z,50.40
2018-09-24T21:39:33.616Z,50.40
2018-09-24T21:42:05.686Z,50.40
2018-09-24T21:44:37.865Z,50.30
2018-09-24T21:47:09.978Z,50.30
2018-09-24T21:49:42.352Z,50.30
2018-09-24T21:52:14.561Z,50.40
2018-09-24T21:54:46.615Z,50.40
2018-09-24T21:57:18.696Z,50.30
2018-09-24T21:59:55.191Z,50.30
2018-09-24T22:02:27.292Z,50.30
2018-09-24T22:04:59.391Z,50.30
2018-09-24T22:07:31.454Z,50.90
2018-09-24T22:10:03.583Z,50.20
2018-09-24T22:12:35.744Z,50.20
2018-09-24T22:15:08.127Z,50.20
2018-09-24T22:17:40.300Z,50.20
2018-09-24T22:20:12.394Z,50.20
2018-09-24T22:22:44.450Z,50.20
2018-09-24T22:25:16.603Z,50.10
2018-09-24T22:27:48.917Z,50.10
2018-09-24T22:30:20.984Z,50.20
2018-09-24T22:32:53.058Z,50.10
2018-09-24T22:35:25.078Z,50.10
2018-09-24T22:37:57.169Z,50.10
2018-09-24T22:40:29.213Z,50.10
2018-09-24T22:43:01.248Z,50.00
2018-09-24T22:45:33.381Z,50.10
2018-09-24T22:48:05.450Z,50.00
2018-09-24T22:50:37.618Z,50.60
2018-09-24T22:53:09.759Z,50.00
2018-09-24T22:55:41.954Z,50.00
2018-09-24T22:58:14.112Z,50.00
2018-09-24T23:00:46.156Z,50.00
2018-09-24T23:03:18.207Z,50.00
2018-09-24T23:05:50.540Z,50.00
2018-09-24T23:08:22.579Z,50.00
2018-09-24T23:10:54.717Z,49.90
2018-09-24T23:13:26.764Z,49.90
2018-09-24T23:15:58.831Z,49.90
2018-09-24T23:18:30.878Z,49.80
2018-09-24T23:21:03.114Z,49.90
2018-09-24T23:23:35.272Z,49.80
2018-09-24T23:26:07.397Z,49.80
2018-09-24T23:28:39.582Z,49.80
2018-09-24T23:31:11.605Z,49.80
2018-09-24T23:33:43.722Z,49.80
2018-09-24T23:36:15.851Z,49.80
2018-09-24T23:38:47.991Z,49.60
2018-09-24T23:41:20.058Z,49.60
2018-09-24T23:43:52.152Z,49.60
2018-09-24T23:46:24.233Z,49.70
2018-09-24T23:48:56.346Z,49.70
2018-09-24T23:51:28.428Z,49.60
2018-09-24T23:54:00.505Z,49.60
2018-09-24T23:56:32.577Z,49.60
2018-09-24T23:59:04.630Z,49.70
